Time;durP1;ratioP1;P1;durP2;ratioP2;P2;SDS_P1;SDS_P2;PMS_P1;PMS_P2;Temp;Humidity;BMP_temperature;BMP_pressure;BME280_temperature;BME280_humidity;BME280_pressure;Samples;Min_cycle;Max_cycle;Signal;HPM_P1;HPM_P2
2022/04/01 00:00:05;;;;;;;12.03;9.70;;;;;;;-3.41;74.16;101464.16;4976039;28;20108;-64
2022/04/01 00:02:30;;;;;;;16.92;10.30;;;;;;;-3.39;73.98;101470.16;4975620;28;20044;-62
2022/04/01 00:04:56;;;;;;;11.90;7.83;;;;;;;-3.41;73.62;101461.53;4975317;28;20121;-63
2022/04/01 00:07:21;;;;;;;10.53;7.00;;;;;;;-3.41;74.11;101461.53;4975424;28;20119;-61
2022/04/01 00:09:47;;;;;;;9.93;7.53;;;;;;;-3.44;73.24;101465.97;4975259;28;20124;-61
2022/04/01 00:12:12;;;;;;;15.10;8.97;;;;;;;-3.44;73.65;101468.56;4976321;28;20042;-64
2022/04/01 00:14:38;;;;;;;15.53;11.03;;;;;;;-3.42;73.32;101470.25;4975266;28;20045;-62
2022/04/01 00:17:04;;;;;;;11.20;7.47;;;;;;;-3.56;73.35;101447.31;4974953;28;20034;-61
2022/04/01 00:19:30;;;;;;;12.43;7.90;;;;;;;-3.44;73.11;101468.56;4975107;28;20034;-62
2022/04/01 00:21:56;;;;;;;10.18;7.00;;;;;;;-3.44;73.88;101478.97;4958966;28;20441;-62
2022/04/01 00:24:22;;;;;;;8.43;6.20;;;;;;;-3.51;73.89;101471.44;4976543;28;20093;-62
2022/04/01 00:26:49;;;;;;;10.63;6.50;;;;;;;-3.51;73.34;101480.09;4975976;28;20046;-61
2022/04/01 00:29:15;;;;;;;11.23;7.38;;;;;;;-3.50;73.17;101488.75;4975783;28;20073;-61
2022/04/01 00:31:43;;;;;;;11.05;6.40;;;;;;;-3.53;73.70;101484.50;4975344;28;20579;-61
2022/04/01 00:34:17;;;;;;;10.23;5.72;;;;;;;-3.54;73.41;101488.00;4975817;28;20031;-61
2022/04/01 00:36:46;;;;;;;5.82;5.13;;;;;;;-3.55;72.71;101493.28;4975636;28;20104;-61
2022/04/01 00:39:13;;;;;;;7.30;5.22;;;;;;;-3.62;72.99;101479.63;4974655;28;20086;-62
2022/04/01 00:41:39;;;;;;;8.10;5.25;;;;;;;-3.63;73.09;101487.50;4974862;28;20039;-63
2022/04/01 00:44:20;;;;;;;11.65;5.03;;;;;;;-3.67;72.51;101494.56;4974878;28;20059;-68
2022/04/01 00:46:49;;;;;;;9.77;5.00;;;;;;;-3.72;73.29;101487.84;4975165;28;20137;-60
2022/04/01 00:49:16;;;;;;;9.13;4.72;;;;;;;-3.77;73.21;101491.41;4974718;28;20068;-61
2022/04/01 00:51:44;;;;;;;6.55;4.40;;;;;;;-3.79;73.71;101498.44;4974560;28;20058;-63
2022/04/01 00:54:10;;;;;;;11.25;5.97;;;;;;;-3.83;73.79;101490.78;4974455;28;20046;-62
2022/04/01 00:56:37;;;;;;;5.13;4.47;;;;;;;-3.85;73.16;101484.78;4974498;28;20037;-62
2022/04/01 00:59:04;;;;;;;9.93;5.72;;;;;;;-3.77;74.26;101504.44;4974882;28;20406;-62
2022/04/01 01:01:34;;;;;;;10.00;5.82;;;;;;;-3.78;74.16;101505.34;4974244;28;20129;-61
2022/04/01 01:04:05;;;;;;;7.95;5.90;;;;;;;-3.81;73.78;101494.19;4974360;28;20478;-61
2022/04/01 01:06:31;;;;;;;9.95;4.63;;;;;;;-3.87;74.02;101491.81;4974403;28;20038;-63
2022/04/01 01:08:59;;;;;;;11.75;5.63;;;;;;;-3.87;73.96;101510.03;4974372;28;20037;-64
2022/04/01 01:11:25;;;;;;;9.00;5.70;;;;;;;-3.91;74.65;101508.44;4974073;28;20058;-62
2022/04/01 01:13:52;;;;;;;9.88;5.32;;;;;;;-3.94;74.86;101514.59;4974640;28;20030;-62
2022/04/01 01:16:17;;;;;;;6.60;5.05;;;;;;;-3.98;74.67;101512.16;4973866;28;20399;-61
2022/04/01 01:18:43;;;;;;;9.83;5.83;;;;;;;-3.99;75.25;101516.50;4973993;28;20094;-61
2022/04/01 01:21:09;;;;;;;12.67;5.17;;;;;;;-4.01;75.45;101515.72;4956761;28;20038;-62
2022/04/01 01:23:37;;;;;;;9.70;5.95;;;;;;;-3.99;74.76;101520.88;4973984;28;20035;-61
2022/04/01 01:26:03;;;;;;;11.15;5.82;;;;;;;-4.02;75.41;101519.22;4974183;28;20046;-62
2022/04/01 01:28:29;;;;;;;9.38;5.68;;;;;;;-3.96;75.46;101531.16;4973858;28;20030;-61
2022/04/01 01:30:55;;;;;;;11.35;5.45;;;;;;;-4.00;74.84;101513.97;4974537;28;20126;-61
2022/04/01 01:33:27;;;;;;;6.33;5.23;;;;;;;-3.93;73.86;101518.91;4973578;28;20122;-63
2022/04/01 01:35:52;;;;;;;9.07;6.00;;;;;;;-3.88;73.76;101527.38;4975593;28;20047;-62
2022/04/01 01:38:19;;;;;;;7.33;4.87;;;;;;;-3.92;74.19;101511.94;4956763;28;20105;-59
2022/04/01 01:40:45;;;;;;;8.95;5.57;;;;;;;-3.90;73.73;101516.19;4974212;28;20112;-61
2022/04/01 01:43:12;;;;;;;6.70;4.85;;;;;;;-3.94;73.70;101525.00;4973992;28;20137;-61
2022/04/01 01:45:41;;;;;;;6.00;4.78;;;;;;;-3.99;74.58;101520.88;4973630;28;20050;-64
2022/04/01 01:48:07;;;;;;;8.95;5.47;;;;;;;-3.96;74.00;101523.34;4973539;28;20578;-61
2022/04/01 01:56:01;;;;;;;10.07;4.93;;;;;;;-3.90;73.03;101521.41;4977758;28;20054;-61
2022/04/01 01:58:27;;;;;;;11.63;5.37;;;;;;;-3.88;73.73;101518.75;4974899;28;20046;-61
2022/04/01 02:00:53;;;;;;;6.93;5.80;;;;;;;-3.91;73.11;101518.84;4973800;28;20133;-61
2022/04/01 02:03:18;;;;;;;11.93;5.33;;;;;;;-3.98;73.87;101514.75;4973484;28;20031;-60
2022/04/01 02:05:43;;;;;;;6.90;4.93;;;;;;;-4.06;73.50;101515.84;4973223;28;20064;-60
2022/04/01 02:08:09;;;;;;;12.60;5.90;;;;;;;-4.07;74.17;101515.88;4973459;28;20082;-61
2022/04/01 02:10:34;;;;;;;7.63;4.47;;;;;;;-4.06;73.58;101520.19;4973331;28;20117;-62
2022/04/01 02:13:00;;;;;;;7.77;5.47;;;;;;;-4.07;73.31;101521.94;4956393;28;20061;-62
2022/04/01 02:15:25;;;;;;;8.47;5.27;;;;;;;-4.10;73.91;101514.25;4973678;28;20046;-61
2022/04/01 02:17:51;;;;;;;43.90;6.70;;;;;;;-4.10;73.58;101519.44;4972994;28;20070;-62
2022/04/01 02:20:17;;;;;;;5.47;4.27;;;;;;;-4.23;74.21;101506.91;4973307;28;20034;-63
2022/04/01 02:22:46;;;;;;;8.70;5.20;;;;;;;-4.21;74.60;101526.78;4973251;28;20502;-63
2022/04/01 02:25:11;;;;;;;7.65;5.20;;;;;;;-4.22;74.69;101525.06;4973197;28;20042;-61
2022/04/01 02:27:38;;;;;;;7.27;5.60;;;;;;;-4.19;73.66;101524.97;4973313;28;20035;-62
2022/04/01 02:30:12;;;;;;;14.07;6.78;;;;;;;-4.24;74.50;101516.47;4973753;28;20039;-63
2022/04/01 02:32:42;;;;;;;9.38;5.35;;;;;;;-4.28;74.41;101521.81;4973223;28;20050;-63
2022/04/01 02:35:09;;;;;;;13.73;7.75;;;;;;;-4.32;74.21;101523.69;4973067;28;20042;-61
2022/04/01 02:37:35;;;;;;;8.20;5.22;;;;;;;-4.37;74.26;101522.94;4972906;28;20035;-64
2022/04/01 02:40:03;;;;;;;10.55;5.93;;;;;;;-4.39;75.27;101519.53;4972963;28;20067;-60
2022/04/01 02:42:28;;;;;;;9.63;5.10;;;;;;;-4.35;75.15;101523.75;4972916;28;20097;-62
2022/04/01 02:44:58;;;;;;;10.60;7.10;;;;;;;-4.33;75.34;101527.19;4977827;28;20542;-63
2022/04/01 02:47:27;;;;;;;8.77;5.75;;;;;;;-4.28;75.29;101540.88;4976833;28;20282;-62
2022/04/01 02:49:54;;;;;;;;;;;;;;;-4.25;74.66;101535.56;4977321;28;20055;-62
2022/04/01 02:52:19;;;;;;;9.80;5.30;;;;;;;-4.27;74.87;101537.38;4976807;28;20389;-61
2022/04/01 02:54:45;;;;;;;11.97;5.87;;;;;;;-4.33;75.52;101534.97;4976600;28;20061;-59
2022/04/01 02:57:10;;;;;;;8.50;5.30;;;;;;;-4.34;75.62;101530.66;4976634;28;20498;-60
2022/04/01 02:59:36;;;;;;;6.10;4.70;;;;;;;-4.28;75.54;101529.63;4978246;28;20487;-62
2022/04/01 03:02:03;;;;;;;7.77;4.67;;;;;;;-4.26;75.01;101536.47;4977177;28;20039;-62
2022/04/01 03:04:29;;;;;;;8.68;6.22;;;;;;;-4.21;74.72;101537.16;4976957;28;20277;-61
2022/04/01 03:06:55;;;;;;;6.88;5.47;;;;;;;-4.19;74.62;101548.38;4976485;28;20047;-62
2022/04/01 03:09:20;;;;;;;9.63;5.30;;;;;;;-4.19;74.77;101544.91;4976330;28;20031;-61
2022/04/01 03:11:46;;;;;;;10.17;5.37;;;;;;;-4.19;74.73;101550.97;4976337;28;20027;-61
2022/04/01 03:14:11;;;;;;;8.73;5.03;;;;;;;-4.21;75.34;101552.78;4976744;28;20049;-61
2022/04/01 03:16:40;;;;;;;8.07;4.77;;;;;;;-4.25;75.19;101550.31;4976661;28;20041;-60
2022/04/01 03:19:08;;;;;;;8.35;4.75;;;;;;;-4.26;75.68;101552.09;4976447;28;20054;-62
2022/04/01 03:21:40;;;;;;;5.70;4.22;;;;;;;-4.25;74.86;101558.97;4976205;28;20170;-62
2022/04/01 03:24:09;;;;;;;9.73;4.65;;;;;;;-4.25;75.40;101558.97;4976140;28;20042;-60
2022/04/01 03:26:36;;;;;;;6.20;4.53;;;;;;;-4.19;75.35;101571.78;4976009;28;20031;-61
2022/04/01 03:29:02;;;;;;;9.70;4.68;;;;;;;-4.18;75.14;101570.88;4976071;28;20038;-59
2022/04/01 03:31:28;;;;;;;25.00;7.07;;;;;;;-4.16;74.91;101576.03;4976611;28;20182;-62
2022/04/01 03:33:54;;;;;;;6.55;4.90;;;;;;;-4.12;74.85;101577.63;4975944;28;20065;-62
2022/04/01 03:36:21;;;;;;;40.83;6.25;;;;;;;-4.36;74.87;101527.25;4975853;28;20046;-60
2022/04/01 03:38:46;;;;;;;9.17;5.00;;;;;;;-4.06;74.96;101572.22;4976219;28;20050;-61
2022/04/01 03:41:13;;;;;;;9.50;5.40;;;;;;;-4.00;74.17;101579.00;4975886;28;20041;-62
2022/04/01 03:43:40;;;;;;;8.02;4.85;;;;;;;-4.01;74.42;101574.69;4975813;28;20450;-62
2022/04/01 03:46:09;;;;;;;9.38;5.22;;;;;;;-3.96;74.89;101580.59;4976428;28;20485;-59
2022/04/01 03:48:52;;;;;;;8.73;5.57;;;;;;;-3.95;74.54;101582.31;4975623;28;20414;-62
2022/04/01 03:51:24;;;;;;;11.25;5.60;;;;;;;-3.95;74.67;101574.50;4975745;28;20520;-62
2022/04/01 03:54:02;;;;;;;9.70;5.80;;;;;;;-3.92;74.84;101590.00;4975555;28;20042;-61
2022/04/01 03:56:34;;;;;;;10.65;6.38;;;;;;;-3.93;74.79;101577.91;4974965;28;20042;-63
2022/04/01 03:59:08;;;;;;;7.63;4.80;;;;;;;-3.92;74.51;101583.03;4975842;28;20039;-63
2022/04/01 04:01:35;;;;;;;9.45;5.88;;;;;;;-3.91;74.50;101581.28;4976216;28;20038;-62
2022/04/01 04:04:01;;;;;;;10.18;6.60;;;;;;;-3.91;74.50;101576.09;4975305;28;20084;-64
2022/04/01 04:06:27;;;;;;;10.15;5.78;;;;;;;-3.87;74.81;101588.09;4975014;28;20122;-65
2022/04/01 04:08:57;;;;;;;8.43;6.17;;;;;;;-3.88;75.07;101576.84;4975238;28;20127;-64
2022/04/01 04:11:25;;;;;;;10.73;6.55;;;;;;;-3.83;74.87;101594.91;4975246;28;20058;-63
2022/04/01 04:13:55;;;;;;;13.55;9.32;;;;;;;-3.86;74.33;101595.00;4975207;28;20097;-61
2022/04/01 04:16:24;;;;;;;12.55;7.95;;;;;;;-3.82;74.69;101601.81;4976519;28;20039;-64
2022/04/01 04:19:10;;;;;;;16.13;7.00;;;;;;;-3.93;74.82;101589.16;4974959;28;20050;-64
2022/04/01 04:21:47;;;;;;;14.15;7.13;;;;;;;-3.77;75.20;101608.56;4957920;28;20043;-64
2022/04/01 04:24:20;;;;;;;10.52;5.88;;;;;;;-3.76;74.25;101617.22;4974977;28;20042;-61
2022/04/01 04:26:51;;;;;;;10.05;5.72;;;;;;;-3.82;74.04;101605.25;4974983;28;20057;-62
2022/04/01 04:29:18;;;;;;;12.10;5.78;;;;;;;-3.75;74.80;101613.75;4974791;28;20046;-61
2022/04/01 04:32:00;;;;;;;9.45;5.63;;;;;;;-3.73;74.05;101622.34;4976099;28;20045;-63
2022/04/01 04:34:36;;;;;;;13.88;5.50;;;;;;;-3.63;74.61;101621.13;4957858;28;20078;-60
2022/04/01 04:37:08;;;;;;;12.40;5.88;;;;;;;-3.57;74.61;101626.13;4974812;28;20030;-63
2022/04/01 04:39:35;;;;;;;13.00;7.05;;;;;;;-3.46;74.68;101637.03;4974600;28;20074;-64
2022/04/01 04:42:02;;;;;;;16.08;7.05;;;;;;;-3.41;73.73;101625.63;4974877;28;20043;-63
2022/04/01 04:44:30;;;;;;;18.13;7.72;;;;;;;-3.34;73.92;101634.91;4974652;28;20059;-63
2022/04/01 04:47:01;;;;;;;13.65;6.13;;;;;;;-3.34;73.49;101619.28;4975518;28;20058;-61
2022/04/01 04:49:27;;;;;;;15.63;6.75;;;;;;;-3.30;74.12;101628.69;4974600;28;20039;-60
2022/04/01 04:51:54;;;;;;;10.90;6.00;;;;;;;-3.31;73.22;101629.59;4974504;28;20529;-62
2022/04/01 04:54:21;;;;;;;13.68;6.57;;;;;;;-3.31;74.49;101638.25;4974582;28;20050;-64
2022/04/01 04:56:49;;;;;;;12.23;6.55;;;;;;;-3.30;73.96;101632.16;4974121;28;20050;-63
2022/04/01 04:59:19;;;;;;;8.98;6.30;;;;;;;-3.20;74.05;101641.34;4974272;28;20561;-63
2022/04/01 05:01:48;;;;;;;12.55;6.93;;;;;;;-3.13;73.71;101645.44;4975179;28;20038;-61
2022/04/01 05:04:25;;;;;;;11.68;6.53;;;;;;;-3.05;73.44;101641.72;4974281;28;20042;-64
2022/04/01 05:07:06;;;;;;;12.60;7.25;;;;;;;-3.01;73.10;101636.34;4973077;28;20043;-63
2022/04/01 05:09:41;;;;;;;14.32;6.97;;;;;;;-2.93;72.86;101642.13;4974514;28;20507;-61
2022/04/01 05:12:13;;;;;;;12.30;7.18;;;;;;;-2.90;73.62;101641.16;4974471;28;20464;-61
2022/04/01 05:14:52;;;;;;;10.45;6.70;;;;;;;-2.85;72.76;101640.09;4974346;28;20081;-62
2022/04/01 05:17:28;;;;;;;20.52;8.45;;;;;;;-2.80;72.37;101637.31;4974651;28;20457;-62
2022/04/01 05:19:58;;;;;;;16.50;9.13;;;;;;;-2.74;72.38;101636.25;4974228;28;20479;-62
2022/04/01 05:22:36;;;;;;;18.45;9.38;;;;;;;-2.70;72.10;101637.81;4973915;28;20133;-62
2022/04/01 05:25:04;;;;;;;15.77;7.80;;;;;;;-2.64;72.34;101635.84;4974044;28;20434;-61
2022/04/01 05:27:32;;;;;;;14.73;6.85;;;;;;;-2.62;71.71;101628.81;4973660;28;20101;-63
2022/04/01 05:30:27;;;;;;;13.15;7.30;;;;;;;-2.51;72.48;101631.03;4973854;28;20034;-62
2022/04/01 05:33:10;;;;;;;12.20;7.45;;;;;;;-2.46;72.03;101621.25;4973592;28;20066;-62
2022/04/01 05:35:41;;;;;;;11.85;8.85;;;;;;;-2.45;71.96;101629.94;4974151;28;20117;-62
2022/04/01 05:38:07;;;;;;;13.70;7.80;;;;;;;-2.45;72.00;101633.41;4973469;28;20081;-61
2022/04/01 05:40:34;;;;;;;21.30;8.95;;;;;;;-2.39;71.95;101633.16;4973473;28;20048;-63
2022/04/01 05:43:01;;;;;;;14.13;9.02;;;;;;;-2.36;72.51;101625.19;4973642;28;20038;-62
2022/04/01 05:45:30;;;;;;;11.35;7.00;;;;;;;-2.27;72.01;101631.84;4973563;28;20062;-60
2022/04/01 05:47:58;;;;;;;17.42;8.00;;;;;;;-2.26;72.10;101629.19;4973900;28;20105;-62
2022/04/01 05:50:28;;;;;;;13.75;8.57;;;;;;;-2.17;71.98;101642.78;4956713;28;20441;-61
2022/04/01 05:52:54;;;;;;;14.55;9.32;;;;;;;-2.16;71.09;101644.47;4974422;28;20038;-61
2022/04/01 05:55:25;;;;;;;14.70;8.10;;;;;;;-2.12;71.95;101640.81;4973892;28;20046;-61
2022/04/01 05:57:52;;;;;;;17.95;8.02;;;;;;;-2.11;71.92;101650.34;4972554;28;20030;-60
2022/04/01 06:00:18;;;;;;;17.70;8.88;;;;;;;-2.20;71.05;101634.16;4974241;28;20101;-64
2022/04/01 06:03:02;;;;;;;14.30;10.15;;;;;;;-2.00;71.58;101650.81;4973851;28;20035;-61
2022/04/01 06:05:34;;;;;;;12.52;8.45;;;;;;;-1.93;72.00;101654.84;4973175;28;20042;-66
2022/04/01 06:08:21;;;;;;;21.13;9.23;;;;;;;-1.89;71.13;101652.06;4973975;28;20038;-62
2022/04/01 06:10:59;;;;;;;14.73;7.97;;;;;;;-1.79;71.42;101664.75;4974097;28;20050;-64
2022/04/01 06:13:30;;;;;;;17.58;8.45;;;;;;;-1.75;71.56;101661.94;4973783;28;20478;-61
2022/04/01 06:16:20;;;;;;;14.88;7.75;;;;;;;-1.67;70.63;101659.88;4973823;28;20043;-61
2022/04/01 06:18:58;;;;;;;12.02;7.43;;;;;;;-1.63;71.11;101666.69;4973293;28;20049;-61
2022/04/01 06:21:26;;;;;;;12.98;6.97;;;;;;;-1.60;70.42;101661.31;4973633;28;20042;-63
2022/04/01 06:24:11;;;;;;;16.15;7.43;;;;;;;-1.52;70.21;101662.75;4973922;28;20034;-67
2022/04/01 06:26:51;;;;;;;18.92;9.80;;;;;;;-1.46;70.45;101662.50;4973239;28;20065;-55
2022/04/01 06:29:35;;;;;;;15.88;9.02;;;;;;;-1.43;70.45;101657.19;4973266;28;20031;-61
2022/04/01 06:32:07;;;;;;;22.35;9.23;;;;;;;-1.39;70.54;101648.28;4974571;28;20083;-59
2022/04/01 06:34:42;;;;;;;20.65;8.93;;;;;;;-1.30;70.19;101658.34;4974721;28;20030;-60
2022/04/01 06:37:14;;;;;;;18.13;8.43;;;;;;;-1.26;70.00;101657.31;4974150;28;20518;-62
2022/04/01 06:40:00;;;;;;;29.42;10.43;;;;;;;-1.34;70.12;101646.31;4973063;28;20046;-64
2022/04/01 06:42:30;;;;;;;18.92;8.27;;;;;;;-1.19;69.63;101671.78;4972828;28;20090;-67
2022/04/01 06:44:57;;;;;;;15.10;7.68;;;;;;;-1.11;70.39;101664.50;4972952;28;20380;-62
2022/04/01 06:47:22;;;;;;;18.73;7.70;;;;;;;-1.08;70.12;101668.75;4974271;28;20042;-64
2022/04/01 06:49:52;;;;;;;22.03;8.13;;;;;;;-1.03;69.95;101659.78;4972982;28;20058;-61
2022/04/01 06:52:19;;;;;;;15.13;7.55;;;;;;;-0.97;70.26;101672.59;4956043;28;20026;-57
2022/04/01 06:54:46;;;;;;;12.80;7.60;;;;;;;-0.96;69.46;101669.06;4972526;28;20035;-61
2022/04/01 06:57:12;;;;;;;14.10;6.93;;;;;;;-0.99;69.26;101663.97;4972516;28;20494;-64
2022/04/01 06:59:37;;;;;;;13.33;7.13;;;;;;;-0.98;70.00;101670.03;4972711;28;20045;-63
2022/04/01 07:02:03;;;;;;;14.80;7.23;;;;;;;-0.97;69.93;101666.50;4973394;28;20030;-62
2022/04/01 07:04:28;;;;;;;18.93;8.00;;;;;;;-0.85;69.85;101672.97;4973456;28;20023;-68
2022/04/01 07:06:55;;;;;;;16.53;8.23;;;;;;;-0.79;70.16;101675.31;4955311;28;20034;-72
2022/04/01 07:09:22;;;;;;;14.80;7.30;;;;;;;-0.73;69.84;101681.13;4972425;28;20487;-69
2022/04/01 07:11:49;;;;;;;20.48;7.28;;;;;;;-0.68;69.71;101673.06;4972186;28;20057;-70
2022/04/01 07:14:15;;;;;;;13.13;6.27;;;;;;;-0.64;69.93;101678.09;4972627;28;20430;-64
2022/04/01 07:16:40;;;;;;;14.37;7.37;;;;;;;-0.67;69.53;101670.38;4973208;28;20038;-66
2022/04/01 07:19:06;;;;;;;15.80;7.77;;;;;;;-0.59;69.57;101683.09;4973825;28;20038;-68
2022/04/01 07:21:32;;;;;;;10.80;7.57;;;;;;;-0.60;70.19;101670.09;4955241;28;20031;-68
2022/04/01 07:24:00;;;;;;;27.55;9.63;;;;;;;-0.52;70.20;101674.09;4972534;28;20043;-65
2022/04/01 07:26:25;;;;;;;17.83;7.37;;;;;;;-0.74;69.59;101628.88;4955227;28;20122;-63
2022/04/01 07:28:52;;;;;;;21.03;9.97;;;;;;;-0.42;69.11;101675.34;4972667;28;20360;-64
2022/04/01 07:34:21;;;;;;;20.20;7.32;;;;;;;-0.26;68.91;101680.75;4898121;29;20036;-67
2022/04/01 07:36:48;;;;;;;14.77;6.97;;;;;;;-0.18;68.91;101683.00;4961123;28;20050;-62
2022/04/01 07:39:15;;;;;;;12.87;7.47;;;;;;;-0.06;68.60;101687.66;4976140;28;20382;-61
2022/04/01 07:41:41;;;;;;;21.57;8.10;;;;;;;-0.01;68.15;101685.66;4959206;28;20298;-64
2022/04/01 07:44:09;;;;;;;15.93;6.40;;;;;;;0.00;67.75;101687.41;4976197;28;20282;-65
2022/04/01 07:46:41;;;;;;;17.67;8.97;;;;;;;-0.04;67.43;101684.03;4976184;28;20046;-62
2022/04/01 07:49:06;;;;;;;20.17;7.20;;;;;;;0.01;67.77;101686.47;4976201;28;20324;-64
2022/04/01 07:51:32;;;;;;;19.13;8.13;;;;;;;-0.07;67.21;101683.34;4975528;28;20462;-62
2022/04/01 07:53:58;;;;;;;17.43;7.90;;;;;;;-0.07;67.58;101684.19;4958378;28;20278;-64
2022/04/01 07:56:30;;;;;;;13.70;6.77;;;;;;;0.05;67.43;101685.41;4975292;28;20034;-63
2022/04/01 07:58:57;;;;;;;11.93;6.17;;;;;;;0.13;67.02;101693.72;4975378;28;20038;-65
2022/04/01 08:01:23;;;;;;;15.17;5.67;;;;;;;0.14;66.25;101684.97;4975286;28;20749;-60
2022/04/01 08:03:48;;;;;;;23.97;7.13;;;;;;;0.26;66.21;101689.59;4976292;28;20290;-61
2022/04/01 08:06:14;;;;;;;15.90;5.53;;;;;;;0.37;64.99;101680.38;4975324;28;20064;-64
2022/04/01 08:08:40;;;;;;;12.53;6.17;;;;;;;0.54;64.53;101693.50;4975796;28;20499;-66
2022/04/01 08:11:06;;;;;;;16.00;6.27;;;;;;;0.69;64.52;101691.91;4975185;28;20920;-66
2022/04/01 08:13:33;;;;;;;14.87;5.73;;;;;;;0.87;64.66;101698.84;4957880;28;20328;-66
2022/04/01 08:15:59;;;;;;;15.13;6.13;;;;;;;0.82;62.98;101696.44;4975129;28;20604;-66
2022/04/01 08:18:24;;;;;;;12.67;5.03;;;;;;;0.70;62.98;101694.44;4975061;28;20286;-69
2022/04/01 08:20:50;;;;;;;15.73;6.20;;;;;;;0.79;63.19;101701.84;4975027;28;20269;-64
2022/04/01 08:23:15;;;;;;;9.80;5.13;;;;;;;0.89;63.08;101694.38;4975019;28;20090;-66
2022/04/01 08:25:41;;;;;;;15.17;4.70;;;;;;;1.05;62.16;101697.91;4975147;28;20614;-64
2022/04/01 08:28:06;;;;;;;17.53;4.63;;;;;;;1.07;61.63;101703.91;4974789;28;20053;-67
2022/04/01 08:30:33;;;;;;;13.90;4.53;;;;;;;1.05;60.51;101690.03;4974759;28;20047;-68
2022/04/01 08:32:58;;;;;;;7.83;3.93;;;;;;;1.21;61.28;101701.44;4975162;28;20047;-63
2022/04/01 08:35:24;;;;;;;9.33;4.93;;;;;;;1.28;60.58;101699.34;4974804;28;20856;-65
2022/04/01 08:37:50;;;;;;;9.40;4.33;;;;;;;1.38;60.24;101692.66;4974855;28;20066;-67
2022/04/01 08:40:15;;;;;;;14.70;5.97;;;;;;;1.39;60.19;101683.00;4974533;28;20788;-72
2022/04/01 08:42:48;;;;;;;9.27;4.93;;;;;;;1.37;59.56;101690.13;4974567;28;20043;-69
2022/04/01 08:45:20;;;;;;;11.37;4.53;;;;;;;1.55;59.44;101694.41;4974941;28;20109;-68
2022/04/01 08:47:47;;;;;;;21.97;4.30;;;;;;;1.68;59.27;101694.59;4974751;28;20286;-67
2022/04/01 08:50:13;;;;;;;10.03;3.90;;;;;;;1.73;57.50;101690.78;4976421;28;20278;-71
2022/04/01 08:52:40;;;;;;;20.20;4.73;;;;;;;1.87;57.72;101695.28;4976261;28;20282;-70
2022/04/01 08:55:08;;;;;;;10.73;6.13;;;;;;;1.92;56.06;101690.63;4974368;28;20300;-67
2022/04/01 08:57:43;;;;;;;13.25;4.55;;;;;;;2.13;56.49;101699.09;4974336;28;20349;-64
2022/04/01 09:00:11;;;;;;;11.27;5.00;;;;;;;2.39;55.99;101697.66;4974221;28;20138;-70
2022/04/01 09:02:37;;;;;;;21.80;6.03;;;;;;;2.57;55.41;101691.31;4974500;28;20341;-68
2022/04/01 09:05:05;;;;;;;12.30;4.93;;;;;;;2.64;54.01;101697.94;4975069;28;20117;-68
2022/04/01 09:07:30;;;;;;;8.97;4.43;;;;;;;2.70;53.75;101697.56;4974299;28;20034;-62
2022/04/01 09:10:03;;;;;;;9.23;5.20;;;;;;;2.74;54.62;101704.34;4974021;28;20682;-65
2022/04/01 09:12:29;;;;;;;16.47;5.73;;;;;;;2.79;54.37;101691.78;4974202;28;20092;-64
2022/04/01 09:14:56;;;;;;;9.13;4.63;;;;;;;2.97;53.95;101704.78;4973973;28;20357;-63
2022/04/01 09:17:22;;;;;;;8.83;5.00;;;;;;;3.24;53.77;101708.41;4940676;28;20027;-62
2022/04/01 09:20:01;;;;;;;12.27;5.10;;;;;;;3.38;53.08;101707.56;4974509;28;20672;-61
2022/04/01 09:22:27;;;;;;;9.27;4.65;;;;;;;3.55;52.90;101706.53;4973995;28;20271;-62
2022/04/01 09:24:58;;;;;;;9.93;4.37;;;;;;;3.58;52.80;101701.94;4956680;28;20046;-62
2022/04/01 09:27:52;;;;;;;14.60;5.77;;;;;;;3.74;52.76;101702.66;4956661;28;20404;-62
2022/04/01 09:30:24;;;;;;;14.07;5.17;;;;;;;3.67;52.14;101705.78;4975011;28;20306;-60
2022/04/01 09:32:51;;;;;;;13.60;4.83;;;;;;;3.57;51.79;101700.25;4981003;28;20274;-64
2022/04/01 09:35:20;;;;;;;15.03;5.10;;;;;;;3.86;51.54;101708.97;4978820;28;20270;-65
2022/04/01 09:37:47;;;;;;;10.23;5.43;;;;;;;3.85;50.62;101702.00;4975318;28;20288;-66
2022/04/01 09:40:15;;;;;;;12.43;5.17;;;;;;;3.66;50.74;101702.28;4976351;28;20042;-67
2022/04/01 09:42:52;;;;;;;9.73;4.53;;;;;;;3.70;50.99;101695.03;4977929;28;20314;-62
2022/04/01 09:45:26;;;;;;;11.30;4.47;;;;;;;3.75;50.62;101698.22;4975256;28;20063;-64
2022/04/01 09:47:58;;;;;;;10.07;4.77;;;;;;;3.85;50.03;101698.53;4976520;28;20663;-60
2022/04/01 09:50:28;;;;;;;15.93;6.20;;;;;;;3.99;49.60;101701.97;4974128;28;20750;-60
2022/04/01 09:53:04;;;;;;;11.63;5.03;;;;;;;3.89;46.83;101692.94;4973680;28;20062;-64
2022/04/01 09:55:38;;;;;;;8.03;3.87;;;;;;;4.03;49.17;101694.69;4975252;28;20638;-66
2022/04/01 09:58:05;;;;;;;10.37;3.80;;;;;;;4.13;49.19;101698.47;4975661;28;20638;-65
2022/04/01 10:00:32;;;;;;;9.73;5.03;;;;;;;4.17;49.10;101692.03;4973919;28;20357;-66
2022/04/01 10:02:59;;;;;;;11.77;3.50;;;;;;;4.37;48.35;101703.09;4973345;28;20266;-66
2022/04/01 10:05:25;;;;;;;8.90;3.40;;;;;;;4.44;48.38;101702.59;4973917;28;20278;-66
2022/04/01 10:07:53;;;;;;;5.57;3.20;;;;;;;4.49;46.50;101702.28;4956872;28;20686;-70
2022/04/01 10:10:19;;;;;;;4.88;3.03;;;;;;;4.33;43.04;101700.63;4973692;28;20274;-61
2022/04/01 10:12:47;;;;;;;4.37;3.13;;;;;;;4.29;44.90;101698.31;4973377;28;20038;-62
2022/04/01 10:15:13;;;;;;;4.13;2.30;;;;;;;4.14;44.38;101694.88;4972305;28;20045;-69
2022/04/01 10:17:41;;;;;;;5.90;3.30;;;;;;;4.27;44.60;101695.78;4973964;28;20761;-70
2022/04/01 10:20:12;;;;;;;4.77;2.40;;;;;;;4.29;45.30;101700.94;4973815;28;20313;-71
2022/04/01 10:22:40;;;;;;;5.63;3.07;;;;;;;4.24;45.73;101703.03;4973422;28;20274;-70
2022/04/01 10:25:15;;;;;;;3.90;2.10;;;;;;;4.20;40.24;101701.53;4972905;28;20274;-68
2022/04/01 10:27:52;;;;;;;2.90;2.33;;;;;;;4.19;41.11;101691.94;4973145;28;20101;-72
2022/04/01 10:30:20;;;;;;;4.47;1.77;;;;;;;4.33;41.50;101683.97;4973610;28;20286;-71
2022/04/01 10:32:47;;;;;;;5.30;1.65;;;;;;;4.31;38.85;101701.69;4973549;28;20274;-75
2022/04/01 10:35:24;;;;;;;3.67;2.10;;;;;;;4.31;42.12;101701.69;4974729;28;20498;-69
2022/04/01 10:37:55;;;;;;;2.20;1.87;;;;;;;4.39;41.79;101682.75;4972849;28;20274;-69
2022/04/01 10:40:21;;;;;;;3.83;2.30;;;;;;;4.56;41.06;101699.13;4973180;28;20274;-75
2022/04/01 10:42:48;;;;;;;6.17;2.33;;;;;;;4.63;40.10;101692.53;4973106;28;20269;-70
2022/04/01 10:45:17;;;;;;;5.07;2.17;;;;;;;4.69;40.61;101696.56;4972884;28;20294;-73
2022/04/01 10:53:38;;;;;;;6.63;1.90;;;;;;;4.64;38.02;101693.38;4973269;28;20046;-70
2022/04/01 10:56:22;;;;;;;3.80;2.00;;;;;;;4.57;38.61;101689.44;4974187;28;20749;-70
2022/04/01 10:59:16;;;;;;;12.33;2.30;;;;;;;4.55;38.43;101692.19;4972595;28;20290;-68
2022/04/01 11:02:00;;;;;;;5.67;2.00;;;;;;;4.69;37.18;101687.78;4972854;28;20258;-65
2022/04/01 11:04:32;;;;;;;6.87;1.90;;;;;;;4.66;35.92;101692.34;4975165;28;20286;-64
2022/04/01 11:07:02;;;;;;;4.67;2.20;;;;;;;4.80;35.22;101677.34;4976433;28;20277;-64
2022/04/01 11:09:54;;;;;;;8.33;1.73;;;;;;;5.00;34.88;101676.88;4976276;28;20277;-66
2022/04/01 11:12:23;;;;;;;9.60;1.70;;;;;;;5.15;33.90;101683.72;4976427;28;20266;-66
2022/04/01 11:15:09;;;;;;;3.05;2.10;;;;;;;5.26;36.02;101680.38;4976368;28;20285;-66
2022/04/01 11:17:35;;;;;;;6.07;2.07;;;;;;;5.40;36.50;101685.53;4958583;28;20122;-66
2022/04/01 11:20:08;;;;;;;2.47;2.00;;;;;;;5.07;37.37;101680.78;4976457;28;20400;-65
2022/04/01 11:22:42;;;;;;;9.20;2.10;;;;;;;5.00;38.79;101676.88;4976395;28;20130;-62
2022/04/01 11:25:14;;;;;;;6.17;2.00;;;;;;;5.15;38.17;101685.53;4976325;28;20443;-63
2022/04/01 11:27:51;;;;;;;4.53;2.00;;;;;;;5.20;37.52;101676.34;4976633;28;20274;-63
2022/04/01 11:30:22;;;;;;;5.10;1.83;;;;;;;5.14;36.29;101673.28;4978801;28;20275;-67
2022/04/01 11:32:53;;;;;;;8.53;2.00;;;;;;;5.04;36.75;101670.41;4977921;28;20703;-70
2022/04/01 11:35:27;;;;;;;4.37;1.90;;;;;;;4.82;38.28;101665.75;4978674;28;20364;-74
2022/04/01 11:37:53;;;;;;;10.33;3.30;;;;;;;4.85;37.47;101656.78;4976226;28;20336;-61
2022/04/01 11:40:30;;;;;;;9.57;2.77;;;;;;;4.82;36.64;101664.91;4975907;28;20278;-61
2022/04/01 11:42:58;;;;;;;8.37;2.63;;;;;;;4.89;37.07;101655.59;4975981;28;20565;-61
2022/04/01 11:45:36;;;;;;;6.57;4.22;;;;;;;4.93;37.77;101649.19;4975672;28;20329;-61
2022/04/01 11:48:16;;;;;;;3.80;2.80;;;;;;;5.15;38.11;101641.47;4976059;28;20046;-64